Time;durP1;ratioP1;P1;durP2;ratioP2;P2;SDS_P1;SDS_P2;PMS_P1;PMS_P2;Temp;Humidity;BMP_temperature;BMP_pressure;BME280_temperature;BME280_humidity;BME280_pressure;Samples;Min_cycle;Max_cycle;Signal;HPM_P1;HPM_P2
2022/02/13 00:00:55;;;;;;;13.57;10.83;;;0.10;99.90;;;;;;6190917;23;20396;-82
2022/02/13 00:03:21;;;;;;;15.77;11.90;;;0.10;99.90;;;;;;6191820;23;20389;-82
2022/02/13 00:05:47;;;;;;;16.47;12.03;;;0.20;99.90;;;;;;6192947;23;20769;-82
2022/02/13 00:08:13;;;;;;;13.53;11.07;;;0.20;99.90;;;;;;6194106;23;20478;-82
2022/02/13 00:10:39;;;;;;;14.67;10.87;;;0.10;99.90;;;;;;6193435;23;20540;-82
2022/02/13 00:13:04;;;;;;;14.03;11.30;;;0.00;99.90;;;;;;6191386;23;20159;-82
2022/02/13 00:15:30;;;;;;;15.10;12.07;;;-0.10;99.90;;;;;;6192957;23;20386;-82
2022/02/13 00:17:56;;;;;;;13.67;10.10;;;0.00;99.90;;;;;;6190830;23;20158;-82
2022/02/13 00:20:22;;;;;;;15.20;11.13;;;0.00;99.90;;;;;;6194981;23;20196;-83
2022/02/13 00:22:48;;;;;;;13.57;11.77;;;-0.10;99.90;;;;;;6180076;23;20182;-82
2022/02/13 00:25:14;;;;;;;11.83;10.50;;;-0.10;99.90;;;;;;6189584;23;20995;-82
2022/02/13 00:27:40;;;;;;;18.10;10.77;;;-0.10;99.90;;;;;;6189522;23;20744;-82
2022/02/13 00:30:07;;;;;;;13.13;10.27;;;0.00;99.90;;;;;;6219455;23;20804;-81
2022/02/13 00:32:36;;;;;;;12.80;9.37;;;0.00;99.90;;;;;;6188234;23;20162;-82
2022/02/13 00:35:02;;;;;;;17.03;10.37;;;0.10;99.90;;;;;;6191430;23;20397;-81
2022/02/13 00:37:27;;;;;;;18.83;10.47;;;0.10;99.90;;;;;;6189964;23;20386;-83
2022/02/13 00:39:53;;;;;;;13.90;10.80;;;0.20;99.90;;;;;;6195203;23;20586;-82
2022/02/13 00:42:19;;;;;;;11.83;9.60;;;0.20;99.90;;;;;;6193269;23;20155;-82
2022/02/13 00:44:44;;;;;;;11.97;9.60;;;0.20;99.90;;;;;;6189956;23;20335;-83
2022/02/13 00:47:12;;;;;;;12.20;9.90;;;0.20;99.90;;;;;;6189318;23;20699;-82
2022/02/13 00:49:38;;;;;;;11.87;9.53;;;0.20;99.90;;;;;;6191333;23;20234;-82
2022/02/13 00:52:04;;;;;;;12.00;9.80;;;0.20;99.90;;;;;;6190758;23;20404;-82
2022/02/13 00:54:32;;;;;;;11.27;9.13;;;0.10;99.90;;;;;;6192374;23;20151;-83
2022/02/13 00:56:58;;;;;;;14.90;10.30;;;0.10;99.90;;;;;;6193590;23;20924;-82
2022/02/13 00:59:24;;;;;;;12.00;9.40;;;0.00;99.90;;;;;;6188274;23;20378;-82
2022/02/13 01:01:49;;;;;;;12.93;9.83;;;0.00;99.90;;;;;;6189593;23;21101;-82
2022/02/13 01:04:15;;;;;;;13.17;10.53;;;0.10;99.90;;;;;;6187414;23;20557;-82
2022/02/13 01:06:41;;;;;;;15.03;11.10;;;0.00;99.90;;;;;;6196488;23;20187;-82
2022/02/13 01:09:09;;;;;;;13.80;11.03;;;0.00;99.90;;;;;;6196024;23;20159;-82
2022/02/13 01:11:35;;;;;;;14.10;10.43;;;0.00;99.90;;;;;;6193955;23;20167;-82
2022/02/13 01:14:01;;;;;;;14.30;10.63;;;0.00;99.90;;;;;;6191243;23;20715;-82
2022/02/13 01:16:28;;;;;;;11.83;9.27;;;0.10;99.90;;;;;;6183494;23;20584;-82
2022/02/13 01:18:55;;;;;;;10.97;9.17;;;0.20;99.90;;;;;;6181211;23;20796;-82
2022/02/13 01:21:22;;;;;;;12.07;10.50;;;0.10;99.90;;;;;;6186416;23;20392;-83
2022/02/13 01:23:48;;;;;;;12.37;9.57;;;0.10;99.90;;;;;;6196164;23;20761;-83
2022/02/13 01:26:15;;;;;;;15.27;11.00;;;0.10;99.90;;;;;;6189458;23;20442;-83
2022/02/13 01:28:43;;;;;;;12.03;10.13;;;0.10;99.90;;;;;;6191460;23;20753;-83
2022/02/13 01:31:09;;;;;;;13.60;10.23;;;0.20;99.90;;;;;;6189900;23;20386;-83
2022/02/13 01:33:35;;;;;;;14.20;9.60;;;0.30;99.90;;;;;;6189153;23;20397;-82
2022/02/13 01:36:03;;;;;;;13.10;10.33;;;0.20;99.90;;;;;;6189893;23;20171;-82
2022/02/13 01:38:31;;;;;;;13.97;9.90;;;0.10;99.90;;;;;;6191903;23;20237;-83
2022/02/13 01:40:57;;;;;;;11.73;9.93;;;0.10;99.90;;;;;;6193331;23;20378;-83
2022/02/13 01:43:22;;;;;;;12.50;9.53;;;0.20;99.90;;;;;;6191638;23;20872;-83
2022/02/13 01:45:48;;;;;;;12.70;9.70;;;0.20;99.90;;;;;;6191007;23;20449;-83
2022/02/13 01:48:14;;;;;;;14.13;10.20;;;0.20;99.90;;;;;;6192206;23;20645;-83
2022/02/13 01:50:42;;;;;;;14.37;9.97;;;0.20;99.90;;;;;;6189620;23;20815;-83
2022/02/13 01:53:10;;;;;;;13.53;10.50;;;0.10;99.90;;;;;;6191156;23;20254;-83
2022/02/13 01:55:36;;;;;;;13.30;10.07;;;0.20;99.90;;;;;;6187098;23;20393;-83
2022/02/13 01:58:02;;;;;;;11.47;9.50;;;0.20;99.90;;;;;;6190909;23;20848;-83
2022/02/13 02:00:28;;;;;;;10.80;9.67;;;0.20;99.90;;;;;;6191107;23;20386;-83
2022/02/13 02:02:53;;;;;;;12.77;9.70;;;0.20;99.90;;;;;;6189800;23;20390;-83
2022/02/13 02:05:19;;;;;;;12.73;10.23;;;0.10;99.90;;;;;;6189727;23;20560;-82
2022/02/13 02:07:54;;;;;;;11.90;10.70;;;0.10;99.90;;;;;;6190829;23;20258;-83
2022/02/13 02:10:22;;;;;;;15.80;9.00;;;0.10;99.90;;;;;;6192583;23;20185;-82
2022/02/13 02:12:50;;;;;;;13.20;10.03;;;0.10;99.90;;;;;;6190372;23;20421;-82
2022/02/13 02:15:19;;;;;;;10.60;9.40;;;0.10;99.90;;;;;;6188182;23;20501;-83
2022/02/13 02:17:45;;;;;;;11.97;9.53;;;0.10;99.90;;;;;;6190108;23;20404;-82
2022/02/13 02:20:12;;;;;;;10.33;9.23;;;0.10;99.90;;;;;;6194620;23;20489;-83
2022/02/13 02:22:37;;;;;;;9.00;8.00;;;0.00;99.90;;;;;;6190595;23;20390;-83
2022/02/13 02:25:03;;;;;;;12.20;9.90;;;-0.10;99.90;;;;;;6190426;23;20880;-83
2022/02/13 02:27:29;;;;;;;12.50;10.27;;;-0.10;99.90;;;;;;6193721;23;20163;-82
2022/02/13 02:29:55;;;;;;;10.37;8.63;;;-0.20;99.90;;;;;;6190199;23;20396;-83
2022/02/13 02:32:22;;;;;;;12.73;9.30;;;-0.20;99.90;;;;;;6191750;23;20155;-82
2022/02/13 02:34:56;;;;;;;11.10;9.17;;;-0.10;99.90;;;;;;6217685;23;20374;-82
2022/02/13 02:37:21;;;;;;;11.90;9.23;;;-0.10;99.90;;;;;;6192721;23;20709;-82
2022/02/13 02:39:47;;;;;;;11.80;9.30;;;-0.10;99.90;;;;;;6194220;23;20668;-82
2022/02/13 02:42:13;;;;;;;13.00;8.97;;;0.00;99.90;;;;;;6195125;23;20159;-83
2022/02/13 02:44:39;;;;;;;12.50;8.63;;;0.00;99.90;;;;;;6196149;23;20155;-83
2022/02/13 02:47:05;;;;;;;11.20;9.00;;;0.00;99.90;;;;;;6202478;23;20448;-82
2022/02/13 02:49:31;;;;;;;11.67;9.17;;;-0.10;99.90;;;;;;6206169;23;20421;-82
2022/02/13 02:51:59;;;;;;;11.10;8.60;;;-0.20;99.90;;;;;;6195018;23;20429;-82
2022/02/13 02:54:36;;;;;;;13.50;9.67;;;-0.30;99.90;;;;;;6191611;23;20233;-83
2022/02/13 02:57:02;;;;;;;11.33;8.87;;;-0.30;99.90;;;;;;6191337;23;20810;-82
2022/02/13 02:59:27;;;;;;;11.40;9.13;;;-0.20;99.90;;;;;;6192894;23;20543;-82
2022/02/13 03:01:53;;;;;;;10.07;9.00;;;-0.20;99.90;;;;;;6193121;23;20398;-82
2022/02/13 03:04:19;;;;;;;12.10;10.03;;;-0.10;99.90;;;;;;6192766;23;20506;-82
2022/02/13 03:06:44;;;;;;;10.87;9.00;;;-0.10;99.90;;;;;;6192329;23;20679;-83
2022/02/13 03:09:12;;;;;;;10.60;9.20;;;-0.10;99.90;;;;;;6193277;23;20590;-83
2022/02/13 03:11:38;;;;;;;12.83;10.37;;;-0.20;99.90;;;;;;6195972;23;20159;-83
2022/02/13 03:14:04;;;;;;;10.63;9.30;;;-0.20;99.90;;;;;;6192959;23;20382;-82
2022/02/13 03:16:30;;;;;;;10.73;9.60;;;-0.20;99.90;;;;;;6191077;23;20159;-83
2022/02/13 03:18:55;;;;;;;13.57;9.90;;;-0.20;99.90;;;;;;6193571;23;21016;-82
2022/02/13 03:21:21;;;;;;;13.90;9.90;;;-0.30;99.90;;;;;;6192766;23;20170;-82
2022/02/13 03:23:47;;;;;;;13.97;9.90;;;-0.20;99.90;;;;;;6192378;23;20163;-82
2022/02/13 03:26:13;;;;;;;16.43;9.47;;;-0.30;99.90;;;;;;6192624;23;20516;-81
2022/02/13 03:28:38;;;;;;;10.57;9.53;;;-0.30;99.90;;;;;;6192991;23;20206;-81
2022/02/13 03:31:04;;;;;;;11.80;8.37;;;-0.30;99.90;;;;;;6193811;23;20169;-82
2022/02/13 03:33:32;;;;;;;11.77;8.87;;;-0.30;99.90;;;;;;6191606;23;20253;-82
2022/02/13 03:35:58;;;;;;;11.67;8.97;;;-0.40;99.90;;;;;;6189466;23;20181;-81
2022/02/13 03:38:24;;;;;;;10.67;9.47;;;-0.40;99.90;;;;;;6192254;23;20386;-81
2022/02/13 03:40:51;;;;;;;12.23;9.60;;;-0.50;99.90;;;;;;6191648;23;20169;-82
2022/02/13 03:43:17;;;;;;;13.53;9.07;;;-0.50;99.90;;;;;;6194471;23;20946;-82
2022/02/13 03:45:43;;;;;;;11.63;9.13;;;-0.40;99.90;;;;;;6191443;23;20511;-83
2022/02/13 03:48:09;;;;;;;16.23;9.70;;;-0.40;99.90;;;;;;6194255;23;20390;-82
2022/02/13 03:50:35;;;;;;;11.27;8.70;;;-0.50;99.90;;;;;;6193387;23;20225;-83
2022/02/13 03:53:01;;;;;;;11.50;9.47;;;-0.50;99.90;;;;;;6191013;23;20212;-83
2022/02/13 03:55:27;;;;;;;12.93;9.67;;;-0.50;99.90;;;;;;6192005;23;20390;-83
2022/02/13 03:57:53;;;;;;;12.90;10.00;;;-0.60;99.90;;;;;;6193176;23;20451;-82
2022/02/13 04:00:19;;;;;;;10.30;8.90;;;-0.60;99.90;;;;;;6217400;23;20401;-82
2022/02/13 04:02:44;;;;;;;12.20;10.30;;;-0.60;99.90;;;;;;6192133;23;20212;-82
2022/02/13 04:05:10;;;;;;;12.83;9.10;;;-0.60;99.90;;;;;;6190987;23;20341;-82
2022/02/13 04:07:41;;;;;;;10.60;8.30;;;-0.60;99.90;;;;;;6192558;23;20175;-82
2022/02/13 04:10:08;;;;;;;9.97;8.90;;;-0.60;99.90;;;;;;6191403;23;20420;-83
2022/02/13 04:12:34;;;;;;;10.87;9.43;;;-0.60;99.90;;;;;;6192534;23;20397;-82
2022/02/13 04:15:00;;;;;;;13.23;9.40;;;-0.50;99.90;;;;;;6192150;23;20632;-82
2022/02/13 04:17:26;;;;;;;11.23;8.40;;;-0.50;99.90;;;;;;6191953;23;20217;-82
2022/02/13 04:19:52;;;;;;;12.43;8.63;;;-0.50;99.90;;;;;;6192617;23;20721;-82
2022/02/13 04:22:17;;;;;;;11.07;9.33;;;-0.50;99.90;;;;;;6190409;23;20975;-82
2022/02/13 04:24:46;;;;;;;11.70;8.17;;;-0.40;99.90;;;;;;6191843;23;20546;-82
2022/02/13 04:27:19;;;;;;;12.97;9.67;;;-0.40;99.90;;;;;;6191725;23;20201;-82
2022/02/13 04:30:03;;;;;;;;;;;;;;;;;;;;;
2022/02/13 04:36:12;;;;;;;11.73;9.30;;;-0.40;99.90;;;;;;6218576;23;20408;-82
2022/02/13 04:38:56;;;;;;;9.30;8.03;;;-0.40;99.90;;;;;;6171298;23;20397;-82
2022/02/13 04:41:22;;;;;;;11.33;8.80;;;-0.30;99.90;;;;;;6190942;23;20467;-83
2022/02/13 04:43:50;;;;;;;12.00;8.50;;;-0.30;99.90;;;;;;6196390;23;20386;-83
2022/02/13 04:46:17;;;;;;;9.90;7.63;;;-0.30;99.90;;;;;;6196020;23;20444;-83
2022/02/13 04:48:43;;;;;;;12.10;8.10;;;-0.40;99.90;;;;;;6194073;23;20197;-83
2022/02/13 04:51:09;;;;;;;13.60;9.07;;;-0.30;99.90;;;;;;6192626;23;20474;-83
2022/02/13 04:53:35;;;;;;;12.10;8.63;;;-0.30;99.90;;;;;;6191118;23;20163;-83
2022/02/13 04:56:00;;;;;;;11.07;9.13;;;-0.30;99.90;;;;;;6190421;23;20163;-83
2022/02/13 04:58:29;;;;;;;11.33;8.77;;;-0.40;99.90;;;;;;6192797;23;20389;-83
2022/02/13 05:00:56;;;;;;;9.37;8.30;;;-0.40;99.90;;;;;;6197278;23;20179;-83
2022/02/13 05:03:23;;;;;;;9.90;8.60;;;-0.40;99.90;;;;;;6192051;23;20661;-83
2022/02/13 05:05:52;;;;;;;13.33;8.50;;;-0.50;99.90;;;;;;6189388;23;20603;-82
2022/02/13 05:08:18;;;;;;;12.00;9.00;;;-0.50;99.90;;;;;;6192210;23;20417;-82
2022/02/13 05:10:44;;;;;;;12.70;8.73;;;-0.50;99.90;;;;;;6191060;23;20780;-83
2022/02/13 05:13:09;;;;;;;11.80;8.50;;;-0.40;99.90;;;;;;6191297;23;20443;-82
2022/02/13 05:15:38;;;;;;;10.43;8.93;;;-0.50;99.90;;;;;;6194260;23;20286;-81
2022/02/13 05:18:04;;;;;;;12.87;8.43;;;-0.50;99.90;;;;;;6193195;23;20163;-81
2022/02/13 05:20:30;;;;;;;10.17;9.10;;;-0.50;99.90;;;;;;6191712;23;20432;-81
2022/02/13 05:22:57;;;;;;;13.63;9.47;;;-0.50;99.90;;;;;;6191220;23;20385;-83
2022/02/13 05:25:23;;;;;;;13.40;9.10;;;-0.50;99.90;;;;;;6190875;23;20405;-80
2022/02/13 05:27:48;;;;;;;13.87;9.37;;;-0.40;99.90;;;;;;6190836;23;20433;-81
2022/02/13 05:30:14;;;;;;;13.67;10.03;;;-0.50;99.90;;;;;;6188099;23;20637;-83
2022/02/13 05:32:40;;;;;;;12.50;8.50;;;-0.40;99.90;;;;;;6182601;23;20159;-84
2022/02/13 05:35:06;;;;;;;10.67;8.77;;;-0.50;99.90;;;;;;6184812;23;20170;-82
2022/02/13 05:37:31;;;;;;;13.23;8.67;;;-0.50;99.90;;;;;;6190759;23;20605;-82
2022/02/13 05:39:59;;;;;;;12.67;8.50;;;-0.50;99.90;;;;;;6167114;23;20876;-82
2022/02/13 05:42:28;;;;;;;14.50;8.80;;;-0.50;99.90;;;;;;6191980;23;20413;-82
2022/02/13 05:44:54;;;;;;;12.17;8.50;;;-0.50;99.90;;;;;;6192839;23;20475;-83
2022/02/13 05:47:22;;;;;;;10.77;7.87;;;-0.50;99.90;;;;;;6208569;23;20576;-82
2022/02/13 05:49:48;;;;;;;10.10;7.60;;;-0.60;99.90;;;;;;6203957;23;20389;-83
2022/02/13 05:52:32;;;;;;;10.90;7.97;;;-0.60;99.90;;;;;;6201651;23;20390;-82
2022/02/13 05:54:59;;;;;;;10.77;7.50;;;-0.70;99.90;;;;;;6196929;23;20458;-82
2022/02/13 05:57:25;;;;;;;10.10;8.13;;;-0.80;99.90;;;;;;6189950;23;20390;-82
2022/02/13 05:59:51;;;;;;;10.40;7.97;;;-0.80;99.90;;;;;;6191410;23;20420;-82
2022/02/13 06:02:17;;;;;;;9.83;7.93;;;-0.90;99.90;;;;;;6193711;23;20158;-82
2022/02/13 06:04:42;;;;;;;11.97;8.03;;;-0.90;99.90;;;;;;6192139;23;20190;-82
2022/02/13 06:07:08;;;;;;;8.20;6.93;;;-0.90;99.90;;;;;;6191958;23;20886;-82
2022/02/13 06:09:34;;;;;;;8.77;7.27;;;-0.80;99.90;;;;;;6190003;23;20159;-83
2022/02/13 06:11:59;;;;;;;10.00;7.20;;;-0.80;99.90;;;;;;6190345;23;20166;-82
2022/02/13 06:14:28;;;;;;;8.50;6.67;;;-0.90;99.90;;;;;;6191890;23;20194;-82
2022/02/13 06:16:55;;;;;;;11.40;7.23;;;-0.90;99.90;;;;;;6191212;23;20541;-82
2022/02/13 06:19:21;;;;;;;9.67;7.33;;;-1.00;99.90;;;;;;6193247;23;20401;-83
2022/02/13 06:21:46;;;;;;;9.97;7.63;;;-1.00;99.90;;;;;;6193809;23;20393;-82
2022/02/13 06:24:14;;;;;;;10.47;7.50;;;-1.00;99.90;;;;;;6192207;23;20687;-82
2022/02/13 06:26:41;;;;;;;8.27;7.27;;;-1.10;99.90;;;;;;6220098;23;20182;-82
2022/02/13 06:29:08;;;;;;;8.40;7.13;;;-1.10;99.90;;;;;;6193194;23;20413;-83
2022/02/13 06:31:36;;;;;;;10.20;8.30;;;-1.00;99.90;;;;;;6193404;23;20401;-83
2022/02/13 06:34:02;;;;;;;8.97;7.90;;;-1.00;99.90;;;;;;6195217;23;20855;-83
2022/02/13 06:36:30;;;;;;;9.00;7.27;;;-1.00;99.90;;;;;;6194574;23;20428;-83
2022/02/13 06:38:58;;;;;;;11.80;8.53;;;-1.00;99.90;;;;;;6194180;23;20384;-82
2022/02/13 06:41:24;;;;;;;9.00;6.87;;;-0.90;99.90;;;;;;6195079;23;20245;-83
2022/02/13 06:43:50;;;;;;;8.80;7.20;;;-0.90;99.90;;;;;;6195088;23;20436;-83
2022/02/13 06:46:16;;;;;;;9.80;7.07;;;-0.80;99.90;;;;;;6196286;23;20974;-83
2022/02/13 06:48:42;;;;;;;10.40;7.83;;;-0.80;99.90;;;;;;6193271;23;20166;-83
2022/02/13 06:51:07;;;;;;;11.60;9.00;;;-0.70;99.90;;;;;;6204432;23;20394;-83
2022/02/13 06:53:33;;;;;;;9.20;7.53;;;-0.70;99.90;;;;;;6203417;23;20241;-82
2022/02/13 06:55:59;;;;;;;9.80;8.20;;;-0.70;99.90;;;;;;6203999;23;20182;-81
2022/02/13 06:58:36;;;;;;;12.00;8.10;;;-0.70;99.90;;;;;;6192789;23;20155;-82
2022/02/13 07:01:05;;;;;;;11.10;8.07;;;-0.70;99.90;;;;;;6193434;23;20269;-82
2022/02/13 07:03:33;;;;;;;10.80;8.00;;;-0.70;99.90;;;;;;6194716;23;20394;-82
2022/02/13 07:08:30;;;;;;;9.70;7.33;;;-0.60;99.90;;;;;;6220043;23;20401;-82
2022/02/13 07:10:59;;;;;;;10.00;8.23;;;-0.50;99.90;;;;;;6192565;23;20397;-82
2022/02/13 07:13:28;;;;;;;9.17;7.57;;;-0.40;99.90;;;;;;6191575;23;20156;-83
2022/02/13 07:15:54;;;;;;;14.00;7.30;;;-0.40;99.90;;;;;;6199247;23;20393;-82
2022/02/13 07:18:19;;;;;;;9.30;7.40;;;-0.30;99.90;;;;;;6175275;23;20519;-82
2022/02/13 07:20:46;;;;;;;10.90;7.70;;;-0.20;99.90;;;;;;6202527;23;20163;-83
2022/02/13 07:23:11;;;;;;;9.80;6.47;;;-0.20;99.90;;;;;;6196610;23;20151;-83
2022/02/13 07:25:38;;;;;;;11.13;7.80;;;-0.10;99.90;;;;;;6194360;23;20491;-84
2022/02/13 07:28:58;;;;;;;8.57;7.20;;;-0.10;99.90;;;;;;6224965;23;20238;-85
2022/02/13 07:30:50;;;;;;;9.23;8.00;;;0.00;99.90;;;;;;6226389;23;20382;-84
2022/02/13 07:33:16;;;;;;;11.20;8.20;;;0.20;99.90;;;;;;6198379;23;20477;-83
2022/02/13 07:35:43;;;;;;;12.40;9.00;;;0.30;99.90;;;;;;6197996;23;20795;-84
2022/02/13 07:38:10;;;;;;;9.50;8.33;;;0.40;99.90;;;;;;6196713;23;20293;-84
2022/02/13 07:40:36;;;;;;;14.13;9.63;;;0.50;99.90;;;;;;6197935;23;20394;-82
2022/02/13 07:43:05;;;;;;;13.47;9.67;;;0.60;99.90;;;;;;6199778;23;20393;-86
2022/02/13 07:45:31;;;;;;;95.10;70.43;;;0.80;99.90;;;;;;6198972;23;20428;-83
2022/02/13 07:47:57;;;;;;;27.60;21.70;;;0.90;99.90;;;;;;6197572;23;20928;-83
2022/02/13 07:50:22;;;;;;;9.70;7.50;;;1.00;99.90;;;;;;6198512;23;20179;-83
2022/02/13 07:52:48;;;;;;;13.90;11.60;;;1.10;99.90;;;;;;6198754;23;20159;-83
2022/02/13 07:55:14;;;;;;;20.80;15.30;;;1.20;99.90;;;;;;6191746;23;20217;-82
2022/02/13 07:57:42;;;;;;;24.33;15.80;;;1.30;99.90;;;;;;6197554;23;20170;-83
2022/02/13 08:00:09;;;;;;;20.43;14.30;;;1.40;99.90;;;;;;6197612;23;20401;-83
2022/02/13 08:02:36;;;;;;;20.87;14.67;;;1.50;99.90;;;;;;6197105;23;20397;-82
2022/02/13 08:05:03;;;;;;;18.40;13.10;;;1.70;99.90;;;;;;6194400;23;20390;-83
2022/02/13 08:07:28;;;;;;;16.80;12.33;;;1.80;99.90;;;;;;6196519;23;20770;-83
2022/02/13 08:09:54;;;;;;;14.57;10.33;;;1.90;99.90;;;;;;6197211;23;20401;-82
2022/02/13 08:12:20;;;;;;;12.97;11.53;;;2.10;99.90;;;;;;6195355;23;20608;-82
2022/02/13 08:14:46;;;;;;;12.70;9.87;;;2.20;99.90;;;;;;6198013;23;20183;-82
2022/02/13 08:17:19;;;;;;;15.60;12.17;;;2.30;99.90;;;;;;6194791;23;20430;-83
2022/02/13 08:19:44;;;;;;;14.20;9.90;;;2.50;99.90;;;;;;6196523;23;20589;-83
2022/02/13 08:22:10;;;;;;;11.13;9.10;;;2.70;99.90;;;;;;6191293;23;21156;-82
2022/02/13 08:24:36;;;;;;;12.23;10.03;;;2.90;99.90;;;;;;6190999;23;20644;-83
2022/02/13 08:27:01;;;;;;;16.60;12.00;;;3.10;99.90;;;;;;6188430;23;20280;-83
2022/02/13 08:29:28;;;;;;;14.70;10.20;;;3.30;99.90;;;;;;6190368;23;20211;-83
2022/02/13 08:31:54;;;;;;;9.63;8.60;;;3.50;99.90;;;;;;6190826;23;20408;-83
2022/02/13 08:34:20;;;;;;;9.80;8.80;;;3.60;99.90;;;;;;6195353;23;20378;-83
2022/02/13 08:36:45;;;;;;;8.47;7.70;;;3.80;99.90;;;;;;6191088;23;20657;-83
2022/02/13 08:39:11;;;;;;;9.90;8.90;;;4.00;99.90;;;;;;6168385;23;20332;-83
2022/02/13 08:41:37;;;;;;;9.43;8.37;;;4.20;99.90;;;;;;6190875;23;20611;-84
2022/02/13 08:44:06;;;;;;;9.63;7.20;;;4.40;99.90;;;;;;6192283;23;20643;-84
2022/02/13 08:46:36;;;;;;;7.33;6.13;;;4.70;99.90;;;;;;6190068;23;20194;-83
2022/02/13 08:49:02;;;;;;;8.60;7.13;;;4.90;99.90;;;;;;6191195;23;20790;-84
2022/02/13 08:51:28;;;;;;;8.57;6.80;;;5.10;99.90;;;;;;6191606;23;20748;-83
2022/02/13 08:53:55;;;;;;;10.17;9.20;;;5.30;99.90;;;;;;6188492;23;20390;-84
2022/02/13 08:56:21;;;;;;;10.77;8.13;;;5.60;99.90;;;;;;6190332;23;20396;-83
2022/02/13 08:58:46;;;;;;;9.10;7.80;;;5.70;99.90;;;;;;6190177;23;20398;-84
2022/02/13 09:01:12;;;;;;;9.67;8.67;;;5.80;99.90;;;;;;6191150;23;20398;-84
2022/02/13 09:03:38;;;;;;;8.93;7.00;;;5.80;99.90;;;;;;6191229;23;20169;-82
2022/02/13 09:06:05;;;;;;;7.80;6.40;;;5.80;99.90;;;;;;6191374;23;20194;-83
2022/02/13 09:08:31;;;;;;;7.80;7.00;;;5.70;99.90;;;;;;6196728;23;20164;-83
2022/02/13 09:10:57;;;;;;;9.87;7.80;;;5.70;99.90;;;;;;6193722;23;20402;-83
2022/02/13 09:13:25;;;;;;;8.63;7.83;;;5.80;99.90;;;;;;6196848;23;20838;-82
2022/02/13 09:15:51;;;;;;;8.37;7.30;;;6.10;99.90;;;;;;6191492;23;20173;-82
2022/02/13 09:18:17;;;;;;;9.17;7.97;;;6.20;99.90;;;;;;6190791;23;20899;-82
2022/02/13 09:20:46;;;;;;;9.27;8.20;;;6.30;99.80;;;;;;6193164;23;20418;-82
2022/02/13 09:23:22;;;;;;;8.80;7.87;;;6.40;99.30;;;;;;6212732;23;20681;-82
2022/02/13 09:25:49;;;;;;;9.77;7.77;;;6.40;99.70;;;;;;6189281;23;20520;-83
2022/02/13 09:28:19;;;;;;;9.80;7.83;;;6.60;99.70;;;;;;6193179;23;20386;-81
2022/02/13 09:30:50;;;;;;;10.00;7.50;;;6.80;99.80;;;;;;6190903;23;20382;-88
2022/02/13 09:33:20;;;;;;;8.87;7.97;;;7.10;99.90;;;;;;6189332;23;20513;-82
2022/02/13 09:35:51;;;;;;;10.10;9.10;;;7.50;99.90;;;;;;6189260;23;20504;-82
2022/02/13 09:38:26;;;;;;;8.77;7.40;;;7.60;98.00;;;;;;6193349;23;20156;-83
2022/02/13 09:40:52;;;;;;;9.23;8.00;;;7.70;97.80;;;;;;6188404;23;20512;-83
2022/02/13 09:43:38;;;;;;;9.20;8.23;;;7.90;97.40;;;;;;6184353;23;20451;-83
2022/02/13 09:46:17;;;;;;;9.20;7.47;;;7.90;97.20;;;;;;6179297;23;20216;-84
2022/02/13 09:48:45;;;;;;;10.63;8.17;;;7.90;97.40;;;;;;6185443;23;20384;-82
2022/02/13 09:51:35;;;;;;;11.20;9.13;;;7.90;97.00;;;;;;6190356;23;20428;-85
2022/02/13 09:54:02;;;;;;;10.70;7.50;;;8.10;97.70;;;;;;6191847;23;20402;-84
2022/02/13 09:56:27;;;;;;;8.73;7.77;;;8.40;96.90;;;;;;6191128;23;20757;-82
2022/02/13 09:58:56;;;;;;;9.10;7.63;;;8.60;96.70;;;;;;6191396;23;20400;-85
2022/02/13 10:01:47;;;;;;;11.40;7.80;;;8.90;96.20;;;;;;6194321;23;20397;-85
2022/02/13 10:04:22;;;;;;;7.83;7.03;;;9.30;95.80;;;;;;6191688;23;20398;-85
2022/02/13 10:06:56;;;;;;;10.73;7.87;;;9.50;95.10;;;;;;6221464;23;20437;-84
2022/02/13 10:09:39;;;;;;;9.50;8.30;;;9.60;95.00;;;;;;6199333;23;20834;-82
2022/02/13 10:12:11;;;;;;;10.50;7.97;;;9.80;93.80;;;;;;6197579;23;20506;-83
2022/02/13 10:14:39;;;;;;;9.27;7.30;;;9.90;93.50;;;;;;6196825;23;20386;-83
2022/02/13 10:17:05;;;;;;;9.33;7.33;;;9.80;94.80;;;;;;6194106;23;20635;-82
2022/02/13 10:19:51;;;;;;;8.90;7.60;;;9.70;93.40;;;;;;6196052;23;20386;-83
2022/02/13 10:22:16;;;;;;;8.67;7.40;;;9.80;93.50;;;;;;6194218;23;20703;-83
2022/02/13 10:24:44;;;;;;;9.20;8.23;;;9.90;93.40;;;;;;6171113;23;20444;-84
2022/02/13 10:27:14;;;;;;;8.97;7.47;;;9.90;92.50;;;;;;6194142;23;20559;-84
2022/02/13 10:29:45;;;;;;;13.70;12.37;;;10.00;93.40;;;;;;6199176;23;20467;-84
2022/02/13 10:32:17;;;;;;;14.27;12.83;;;10.20;92.20;;;;;;6195365;23;20701;-86
2022/02/13 10:35:03;;;;;;;8.30;7.27;;;10.30;93.20;;;;;;6190383;23;20429;-86
2022/02/13 10:37:39;;;;;;;8.70;7.77;;;10.50;92.10;;;;;;6189494;23;20393;-85
2022/02/13 10:40:06;;;;;;;8.60;7.67;;;10.70;91.50;;;;;;6195056;23;20385;-84
2022/02/13 10:42:32;;;;;;;9.27;7.70;;;11.00;91.00;;;;;;6192062;23;20624;-85
2022/02/13 10:45:21;;;;;;;8.33;7.50;;;11.00;91.00;;;;;;6204288;23;21347;-84
2022/02/13 10:47:48;;;;;;;11.17;8.70;;;11.00;90.50;;;;;;6200912;23;20435;-84
2022/02/13 10:50:17;;;;;;;10.60;8.73;;;11.30;90.30;;;;;;6206681;23;20390;-84
2022/02/13 10:52:48;;;;;;;9.40;7.57;;;11.50;90.10;;;;;;6191769;23;20499;-84
2022/02/13 10:55:14;;;;;;;12.70;9.80;;;11.60;90.00;;;;;;6193389;23;20802;-85
2022/02/13 10:57:41;;;;;;;9.30;8.40;;;11.80;89.70;;;;;;6192064;23;20398;-85
2022/02/13 11:00:12;;;;;;;13.93;8.17;;;11.90;88.80;;;;;;6190974;23;20401;-84
2022/02/13 11:02:42;;;;;;;7.43;6.70;;;12.00;89.50;;;;;;6189718;23;20779;-85
2022/02/13 11:05:08;;;;;;;9.50;8.03;;;12.00;89.50;;;;;;6189213;23;20397;-84
2022/02/13 11:07:41;;;;;;;10.00;7.90;;;12.30;90.00;;;;;;6191693;23;20513;-85
2022/02/13 11:10:34;;;;;;;9.73;8.73;;;12.30;86.70;;;;;;6196139;23;20462;-85
2022/02/13 11:13:01;;;;;;;10.60;9.20;;;12.70;86.70;;;;;;6189533;23;20478;-85
2022/02/13 11:15:32;;;;;;;9.33;8.07;;;12.80;84.90;;;;;;6192510;23;20404;-85
2022/02/13 11:18:03;;;;;;;8.00;7.20;;;12.90;84.00;;;;;;6191953;23;20779;-86
2022/02/13 11:20:30;;;;;;;8.50;7.63;;;12.70;85.10;;;;;;6191020;23;20861;-85
2022/02/13 11:23:23;;;;;;;10.23;7.43;;;13.00;82.90;;;;;;6195005;23;20713;-84
2022/02/13 11:25:57;;;;;;;11.13;9.93;;;12.80;82.60;;;;;;6197982;23;20426;-84
2022/02/13 11:28:42;;;;;;;11.00;9.70;;;12.30;88.70;;;;;;6192862;23;20443;-85
2022/02/13 11:31:28;;;;;;;9.63;8.40;;;12.10;88.60;;;;;;6189620;23;20390;-84
2022/02/13 11:33:54;;;;;;;9.80;7.50;;;12.70;84.30;;;;;;6192245;23;20568;-84
2022/02/13 11:36:20;;;;;;;8.90;8.00;;;12.90;85.70;;;;;;6189192;23;20750;-86
2022/02/13 11:38:46;;;;;;;8.80;7.93;;;13.30;83.90;;;;;;6192725;23;20844;-86
2022/02/13 11:41:16;;;;;;;12.90;8.50;;;13.70;81.50;;;;;;6195089;23;20182;-85
2022/02/13 11:43:45;;;;;;;9.67;7.20;;;13.90;80.50;;;;;;6193362;23;20205;-86
2022/02/13 11:46:12;;;;;;;8.47;7.47;;;13.90;78.20;;;;;;6192814;23;20466;-86
2022/02/13 11:48:45;;;;;;;8.40;7.50;;;14.00;78.40;;;;;;6193735;23;20433;-85
2022/02/13 11:51:13;;;;;;;9.63;7.73;;;14.10;77.80;;;;;;6191794;23;20459;-84
2022/02/13 11:53:44;;;;;;;9.17;7.13;;;14.00;77.90;;;;;;6191734;23;20390;-84
2022/02/13 11:56:26;;;;;;;8.97;8.10;;;13.70;77.10;;;;;;6196094;23;20465;-85
2022/02/13 11:58:55;;;;;;;7.83;7.03;;;13.70;77.90;;;;;;6189183;23;20818;-83
2022/02/13 12:01:36;;;;;;;10.03;7.70;;;14.10;77.90;;;;;;6193311;23;20386;-84
2022/02/13 12:04:06;;;;;;;9.23;7.50;;;14.40;79.10;;;;;;6191527;23;20386;-87
2022/02/13 12:06:33;;;;;;;7.67;5.63;;;14.70;73.80;;;;;;6192327;23;20845;-85
2022/02/13 12:09:08;;;;;;;9.80;6.90;;;14.50;70.20;;;;;;6190392;23;20736;-82
2022/02/13 12:11:39;;;;;;;6.43;5.73;;;14.50;71.40;;;;;;6191158;23;20400;-82
2022/02/13 12:14:18;;;;;;;7.00;6.30;;;14.10;71.30;;;;;;6191400;23;20774;-83
2022/02/13 12:16:52;;;;;;;6.63;6.00;;;14.00;71.10;;;;;;6191757;23;20749;-83
2022/02/13 12:19:40;;;;;;;11.10;6.50;;;14.00;71.50;;;;;;6194571;23;20806;-82
2022/02/13 12:22:15;;;;;;;7.43;5.83;;;14.10;72.10;;;;;;6193426;23;20395;-83
2022/02/13 12:24:43;;;;;;;13.23;6.70;;;14.00;71.20;;;;;;6194319;23;20449;-83
2022/02/13 12:27:09;;;;;;;8.00;6.70;;;14.10;71.30;;;;;;6195247;23;20385;-83
2022/02/13 12:29:42;;;;;;;10.00;6.77;;;14.30;71.00;;;;;;6195644;23;20733;-83
2022/02/13 12:32:12;;;;;;;9.57;6.43;;;14.50;70.70;;;;;;6193222;23;20527;-83
2022/02/13 12:35:00;;;;;;;8.53;6.90;;;14.10;70.20;;;;;;6192412;23;20492;-83
2022/02/13 12:37:44;;;;;;;8.03;5.63;;;14.10;71.20;;;;;;6192522;23;20544;-83
2022/02/13 12:40:12;;;;;;;8.97;6.37;;;14.50;70.40;;;;;;6194733;23;20390;-83
2022/02/13 12:42:40;;;;;;;7.27;6.23;;;14.90;68.90;;;;;;6196146;23;20914;-83
2022/02/13 12:45:14;;;;;;;9.40;6.07;;;15.30;68.00;;;;;;6197612;23;20378;-83
2022/02/13 12:47:43;;;;;;;7.00;5.70;;;15.00;67.10;;;;;;6206838;23;20800;-83
2022/02/13 12:50:12;;;;;;;7.63;5.23;;;14.70;66.90;;;;;;6200185;23;20410;-83
2022/02/13 12:52:38;;;;;;;7.37;5.13;;;15.00;66.80;;;;;;6197965;23;20402;-83
2022/02/13 12:55:29;;;;;;;7.47;5.63;;;15.20;66.70;;;;;;6192603;23;20394;-83